Terminal Aerodrome Forecast
Issued by NWS

Home | Current Version | Previous Version | Text Only | Print | Product List | Glossary On
Versions: 1 2 3 4 5 6 7 8 9 10 11 12 13 14 15 16 17 18 19 20
000
FTUS44 KHGX 260529
TAFUTS
TAF
KUTS 260529Z 2606/2706 15004KT P6SM SCT040 BKN250
     FM260900 16005KT P6SM BKN028
     FM261700 14012KT P6SM VCSH SCT015 BKN025
     FM262300 15006KT P6SM SCT007 BKN015=

USA.gov is the U.S. government's official web portal to all federal, state and local government web resources and services.